Time;durP1;ratioP1;P1;durP2;ratioP2;P2;SDS_P1;SDS_P2;PMS_P1;PMS_P2;Temp;Humidity;BMP_temperature;BMP_pressure;BME280_temperature;BME280_humidity;BME280_pressure;Samples;Min_cycle;Max_cycle;Signal;HPM_P1;HPM_P2
2022/09/30 00:00:02;;;;;;;5.20;4.70;;;8.70;99.90;;;;;;5081373;28;20082;-50
2022/09/30 00:02:34;;;;;;;5.80;5.20;;;8.70;99.90;;;;;;5044651;28;20099;-48
2022/09/30 00:05:00;;;;;;;5.78;4.78;;;8.70;99.90;;;;;;5054522;28;20052;-49
2022/09/30 00:07:26;;;;;;;5.55;5.03;;;8.70;99.90;;;;;;5061283;28;20121;-50
2022/09/30 00:09:52;;;;;;;7.97;5.07;;;8.70;99.90;;;;;;5076327;28;20056;-48
2022/09/30 00:12:19;;;;;;;5.97;4.70;;;8.80;99.90;;;;;;5059026;28;20101;-48
2022/09/30 00:14:45;;;;;;;7.03;4.75;;;8.70;99.90;;;;;;5093467;28;20048;-50
2022/09/30 00:17:11;;;;;;;5.00;4.18;;;8.60;99.90;;;;;;5076171;28;20746;-52
2022/09/30 00:19:37;;;;;;;5.18;4.28;;;8.60;99.90;;;;;;5077741;28;20498;-49
2022/09/30 00:22:03;;;;;;;4.75;4.28;;;8.60;99.90;;;;;;5075493;28;20064;-46
2022/09/30 00:24:29;;;;;;;5.07;4.25;;;8.60;99.90;;;;;;5062794;28;20048;-47
2022/09/30 00:26:55;;;;;;;4.75;4.28;;;8.60;99.90;;;;;;5078271;28;20047;-52
2022/09/30 00:29:21;;;;;;;5.68;4.32;;;8.60;99.90;;;;;;5039945;28;20048;-47
2022/09/30 00:31:47;;;;;;;4.97;4.50;;;8.60;99.90;;;;;;5044949;28;20127;-46
2022/09/30 00:34:13;;;;;;;5.28;4.55;;;8.60;99.90;;;;;;5053409;28;20371;-45
2022/09/30 00:36:45;;;;;;;5.07;4.38;;;8.60;99.90;;;;;;5077110;28;20059;-47
2022/09/30 00:39:21;;;;;;;6.70;5.50;;;8.50;99.90;;;;;;5057770;28;20048;-50
2022/09/30 00:41:51;;;;;;;5.80;5.28;;;8.50;99.90;;;;;;5038550;28;20049;-50
2022/09/30 00:44:51;;;;;;;5.53;5.03;;;8.50;99.90;;;;;;5056949;28;20406;-49
2022/09/30 00:47:27;;;;;;;5.85;5.03;;;8.50;99.90;;;;;;5078238;28;20058;-45
2022/09/30 00:49:56;;;;;;;6.55;5.43;;;8.40;99.90;;;;;;5049274;28;20067;-44
2022/09/30 00:52:23;;;;;;;5.82;5.32;;;8.50;99.90;;;;;;5082338;28;20098;-49
2022/09/30 00:54:50;;;;;;;6.80;5.55;;;8.40;99.90;;;;;;5075891;28;20264;-48
2022/09/30 00:57:16;;;;;;;7.03;5.80;;;8.50;99.90;;;;;;5061379;28;20044;-48
2022/09/30 00:59:46;;;;;;;6.75;6.15;;;8.50;99.90;;;;;;5043089;28;20056;-46
2022/09/30 01:02:13;;;;;;;6.72;6.13;;;8.50;99.90;;;;;;5076016;28;20442;-50
2022/09/30 01:04:41;;;;;;;6.95;6.25;;;8.50;99.90;;;;;;5046642;28;20144;-48
2022/09/30 01:07:08;;;;;;;11.73;5.47;;;8.50;99.90;;;;;;5078984;28;20147;-48
2022/09/30 01:09:38;;;;;;;28.08;6.70;;;8.40;99.90;;;;;;5058956;28;20158;-48
2022/09/30 01:12:16;;;;;;;26.63;5.85;;;8.40;99.90;;;;;;5056865;28;20032;-46
2022/09/30 01:14:44;;;;;;;6.38;4.53;;;8.30;99.90;;;;;;5053322;28;20152;-45
2022/09/30 01:17:26;;;;;;;4.75;4.20;;;8.30;99.90;;;;;;5048573;28;20136;-49
2022/09/30 01:20:29;;;;;;;6.78;4.60;;;8.30;99.90;;;;;;5075805;28;20256;-46
2022/09/30 01:23:40;;;;;;;5.53;5.03;;;8.20;99.90;;;;;;5056187;28;20113;-48
2022/09/30 01:26:24;;;;;;;5.72;4.78;;;8.20;99.90;;;;;;5042178;28;20092;-46
2022/09/30 01:29:09;;;;;;;6.20;5.60;;;8.10;99.90;;;;;;5040543;28;20536;-48
2022/09/30 01:32:06;;;;;;;6.65;6.03;;;8.10;99.90;;;;;;5077457;28;20047;-52
2022/09/30 01:34:51;;;;;;;5.25;4.75;;;8.10;99.90;;;;;;5072258;28;20160;-49
2022/09/30 01:37:29;;;;;;;5.47;4.63;;;8.00;99.90;;;;;;5081026;28;20044;-46
2022/09/30 01:40:21;;;;;;;6.15;5.10;;;8.00;99.90;;;;;;5079943;28;20048;-47
2022/09/30 01:42:58;;;;;;;5.10;4.60;;;8.00;99.90;;;;;;5063319;28;20592;-47
2022/09/30 01:45:34;;;;;;;7.03;5.28;;;7.90;99.90;;;;;;5057184;28;20112;-50
2022/09/30 01:48:22;;;;;;;7.25;6.55;;;7.90;99.90;;;;;;5064734;28;20452;-48
2022/09/30 01:51:03;;;;;;;6.63;5.93;;;7.90;99.90;;;;;;5064291;28;20595;-48
2022/09/30 01:53:34;;;;;;;6.38;5.78;;;7.90;99.90;;;;;;5064583;28;20055;-47
2022/09/30 01:56:21;;;;;;;6.53;5.72;;;7.90;99.90;;;;;;5075148;28;20358;-48
2022/09/30 01:59:06;;;;;;;7.72;6.22;;;7.90;99.90;;;;;;5058949;28;20122;-50
2022/09/30 02:01:57;;;;;;;7.45;6.75;;;7.80;99.90;;;;;;5077815;28;20453;-48
2022/09/30 02:04:31;;;;;;;6.88;6.20;;;7.70;99.90;;;;;;5041862;28;20048;-48
2022/09/30 02:07:03;;;;;;;7.47;6.40;;;7.70;99.90;;;;;;5080170;28;20441;-49
2022/09/30 02:09:45;;;;;;;6.25;5.00;;;7.70;99.90;;;;;;5080329;28;20135;-47
2022/09/30 02:12:17;;;;;;;;;;;7.70;99.90;;;;;;5057428;28;20051;-47
2022/09/30 02:14:50;;;;;;;6.60;5.57;;;7.60;99.90;;;;;;5057847;28;19927;-48
2022/09/30 02:17:57;;;;;;;6.10;5.50;;;7.60;99.90;;;;;;5051084;28;20133;-49
2022/09/30 02:20:37;;;;;;;6.80;6.10;;;7.60;99.90;;;;;;5014820;28;20796;-48
2022/09/30 02:23:06;;;;;;;7.43;5.78;;;7.50;99.90;;;;;;5075666;28;20127;-47
2022/09/30 02:25:41;;;;;;;8.32;7.20;;;7.50;99.90;;;;;;5027575;28;20044;-45
2022/09/30 02:28:14;;;;;;;7.55;6.85;;;7.50;99.90;;;;;;5095316;28;20052;-45
2022/09/30 02:30:48;;;;;;;7.30;6.60;;;7.50;99.90;;;;;;5057582;28;20052;-47
2022/09/30 02:33:31;;;;;;;8.13;7.38;;;7.50;99.90;;;;;;5046401;28;20036;-44
2022/09/30 02:36:06;;;;;;;8.95;6.82;;;7.40;99.90;;;;;;5078016;28;20128;-49
2022/09/30 02:38:39;;;;;;;6.97;6.35;;;7.40;99.90;;;;;;5078698;28;20086;-50
2022/09/30 02:41:21;;;;;;;7.00;6.30;;;7.30;99.90;;;;;;5080118;28;20044;-48
2022/09/30 02:43:48;;;;;;;6.97;6.28;;;7.20;99.90;;;;;;5041900;28;20123;-48
2022/09/30 02:46:25;;;;;;;9.63;6.10;;;7.20;99.90;;;;;;5056884;28;20908;-48
2022/09/30 02:48:57;;;;;;;6.93;6.03;;;7.10;99.90;;;;;;5081507;28;20084;-47
2022/09/30 02:51:38;;;;;;;24.38;7.97;;;7.10;99.90;;;;;;5080662;28;20058;-51
2022/09/30 02:54:34;;;;;;;8.38;7.20;;;7.10;99.90;;;;;;5060246;28;20053;-45
2022/09/30 02:57:19;;;;;;;22.08;8.75;;;7.10;99.90;;;;;;5029857;28;20143;-46
2022/09/30 02:59:51;;;;;;;9.95;8.95;;;7.10;99.90;;;;;;5047192;28;20044;-44
2022/09/30 03:02:18;;;;;;;42.90;12.43;;;7.10;99.90;;;;;;5045084;28;20779;-44
2022/09/30 03:04:45;;;;;;;17.60;9.77;;;7.00;99.90;;;;;;5074092;28;20558;-45
2022/09/30 03:07:12;;;;;;;12.23;9.88;;;7.00;99.90;;;;;;5044029;28;20133;-46
2022/09/30 03:09:38;;;;;;;11.07;9.98;;;6.90;99.90;;;;;;5043340;28;20801;-45
2022/09/30 03:12:23;;;;;;;9.70;8.70;;;7.00;99.90;;;;;;5074704;28;20052;-47
2022/09/30 03:15:17;;;;;;;9.23;8.32;;;7.00;99.90;;;;;;5061197;28;20444;-46
2022/09/30 03:18:00;;;;;;;10.70;7.82;;;7.00;99.90;;;;;;5080757;28;20044;-47
2022/09/30 03:20:41;;;;;;;8.73;7.88;;;7.00;99.90;;;;;;5075638;28;20842;-43
2022/09/30 03:23:56;;;;;;;12.88;7.18;;;6.90;99.90;;;;;;5061646;28;20619;-49
2022/09/30 03:26:35;;;;;;;8.35;7.00;;;6.90;99.90;;;;;;5032735;28;20501;-47
2022/09/30 03:29:23;;;;;;;13.25;7.25;;;6.80;99.90;;;;;;5063050;28;20051;-46
2022/09/30 03:32:18;;;;;;;9.77;7.15;;;6.70;99.90;;;;;;5062013;28;20044;-45
2022/09/30 03:34:59;;;;;;;6.85;6.13;;;6.70;99.90;;;;;;5052090;28;20799;-44
2022/09/30 03:37:37;;;;;;;7.38;5.50;;;6.60;99.90;;;;;;5072304;28;20051;-48
2022/09/30 03:40:10;;;;;;;6.30;5.70;;;6.60;99.90;;;;;;5079188;28;20051;-44
2022/09/30 03:42:47;;;;;;;5.65;4.88;;;6.50;99.90;;;;;;5058761;28;22327;-45
2022/09/30 03:45:21;;;;;;;4.68;4.18;;;6.50;99.90;;;;;;5058495;28;20039;-45
2022/09/30 03:47:52;;;;;;;4.80;4.40;;;6.40;99.90;;;;;;5079193;28;20043;-47
2022/09/30 03:50:21;;;;;;;5.93;4.57;;;6.40;99.90;;;;;;5095425;28;20131;-46
2022/09/30 03:52:49;;;;;;;7.72;5.88;;;6.40;99.90;;;;;;5055645;28;20044;-44
2022/09/30 03:55:18;;;;;;;6.88;6.10;;;6.40;99.90;;;;;;5057685;28;20074;-44
2022/09/30 03:57:45;;;;;;;12.85;6.68;;;6.40;99.90;;;;;;5044287;28;20131;-47
2022/09/30 04:00:12;;;;;;;36.85;8.98;;;6.40;99.90;;;;;;5057076;28;20051;-49
2022/09/30 04:02:39;;;;;;;54.17;11.52;;;6.50;99.90;;;;;;5073632;28;20052;-48
2022/09/30 04:05:06;;;;;;;29.60;10.75;;;6.50;99.90;;;;;;5073729;28;20106;-49
2022/09/30 04:07:32;;;;;;;29.08;11.32;;;6.50;99.90;;;;;;5055527;28;20127;-52
2022/09/30 04:09:58;;;;;;;58.83;12.90;;;6.60;99.90;;;;;;5062294;28;20055;-48
2022/09/30 04:12:25;;;;;;;37.33;11.52;;;6.60;99.90;;;;;;5018808;28;20043;-48
2022/09/30 04:14:51;;;;;;;62.92;9.68;;;6.60;99.90;;;;;;5044407;28;20495;-48
2022/09/30 04:17:17;;;;;;;51.78;10.15;;;6.50;99.90;;;;;;5055264;28;20528;-48
2022/09/30 04:19:43;;;;;;;93.25;12.43;;;6.50;99.90;;;;;;5060159;28;20059;-47
2022/09/30 04:22:10;;;;;;;37.28;8.82;;;6.50;99.90;;;;;;5043321;28;20789;-50
2022/09/30 04:24:38;;;;;;;12.98;7.57;;;6.40;99.90;;;;;;5070533;28;20056;-48
2022/09/30 04:27:04;;;;;;;12.80;7.60;;;6.30;99.90;;;;;;5061836;28;20044;-49
2022/09/30 04:29:30;;;;;;;18.08;8.43;;;6.20;99.90;;;;;;5079531;28;20055;-47
2022/09/30 04:31:56;;;;;;;10.45;8.85;;;6.20;99.90;;;;;;5071642;28;20049;-48
2022/09/30 04:34:22;;;;;;;10.05;8.85;;;6.30;99.90;;;;;;5061331;28;20430;-47
2022/09/30 04:36:48;;;;;;;8.70;7.90;;;6.20;99.90;;;;;;5074854;28;20526;-47
2022/09/30 04:39:17;;;;;;;7.45;6.75;;;6.20;99.90;;;;;;5079765;28;20699;-47
2022/09/30 04:41:43;;;;;;;10.18;9.27;;;6.20;99.90;;;;;;5077589;28;20087;-48
2022/09/30 04:44:09;;;;;;;9.02;7.97;;;6.10;99.90;;;;;;5061585;28;20055;-49
2022/09/30 04:46:36;;;;;;;9.10;8.30;;;6.10;99.90;;;;;;5074552;28;20046;-47
2022/09/30 04:49:04;;;;;;;9.02;8.23;;;6.10;99.90;;;;;;5056305;28;20051;-48
2022/09/30 04:51:30;;;;;;;8.15;6.85;;;6.10;99.90;;;;;;5075147;28;20047;-49
2022/09/30 04:53:56;;;;;;;8.60;6.88;;;6.10;99.90;;;;;;5061858;28;20075;-51
2022/09/30 04:56:25;;;;;;;7.28;6.57;;;6.00;99.90;;;;;;5082594;28;20052;-46
2022/09/30 04:58:52;;;;;;;8.10;7.30;;;6.00;99.90;;;;;;5073886;28;20063;-44
2022/09/30 05:01:19;;;;;;;8.32;7.53;;;6.00;99.90;;;;;;5062676;28;20048;-45
2022/09/30 05:03:46;;;;;;;8.15;7.35;;;5.90;99.90;;;;;;5077437;28;20051;-46
2022/09/30 05:06:13;;;;;;;7.80;7.10;;;5.90;99.90;;;;;;5060283;28;20800;-46
2022/09/30 05:08:41;;;;;;;7.88;7.18;;;5.80;99.90;;;;;;5076575;28;20072;-44
2022/09/30 05:11:09;;;;;;;8.65;7.75;;;5.80;99.90;;;;;;5060639;28;20745;-43
2022/09/30 05:13:37;;;;;;;8.77;7.97;;;5.80;99.90;;;;;;5078549;28;20461;-45
2022/09/30 05:16:05;;;;;;;8.02;7.25;;;5.80;99.90;;;;;;5063302;28;20738;-46
2022/09/30 05:18:35;;;;;;;7.95;7.25;;;5.70;99.90;;;;;;5055504;28;20051;-45
2022/09/30 05:21:02;;;;;;;9.75;7.18;;;5.70;99.90;;;;;;5059664;28;20060;-47
2022/09/30 05:23:30;;;;;;;12.40;10.07;;;5.70;99.90;;;;;;5053230;28;20101;-44
2022/09/30 05:25:57;;;;;;;8.98;8.05;;;5.70;99.90;;;;;;5077095;28;20040;-50
2022/09/30 05:28:24;;;;;;;8.75;7.95;;;5.70;99.90;;;;;;5063619;28;20048;-47
2022/09/30 05:31:04;;;;;;;9.23;8.43;;;5.70;99.90;;;;;;5061555;28;20055;-48
2022/09/30 05:33:31;;;;;;;10.52;9.52;;;5.70;99.90;;;;;;5076503;28;20172;-44
2022/09/30 05:36:03;;;;;;;10.50;9.23;;;5.80;99.90;;;;;;5078957;28;20047;-48
2022/09/30 05:38:29;;;;;;;9.85;8.88;;;5.80;99.90;;;;;;5060470;28;20051;-45
2022/09/30 05:40:56;;;;;;;9.75;8.93;;;5.70;99.90;;;;;;5059921;28;20052;-45
2022/09/30 05:43:25;;;;;;;10.07;9.18;;;5.80;99.90;;;;;;5046340;28;20044;-48
2022/09/30 05:45:56;;;;;;;11.18;10.05;;;5.80;99.90;;;;;;5056366;28;20067;-45
2022/09/30 05:48:24;;;;;;;10.80;9.70;;;5.80;99.90;;;;;;5060134;28;20091;-46
2022/09/30 05:50:54;;;;;;;12.10;9.65;;;5.80;99.90;;;;;;5029788;28;20044;-52
2022/09/30 05:53:21;;;;;;;10.32;9.30;;;5.80;99.90;;;;;;5051932;28;20513;-47
2022/09/30 05:55:49;;;;;;;9.63;8.73;;;5.80;99.90;;;;;;5080875;28;20797;-44
2022/09/30 05:58:16;;;;;;;12.88;8.93;;;5.80;99.90;;;;;;5043654;28;20059;-46
2022/09/30 06:00:45;;;;;;;9.90;8.68;;;5.70;99.90;;;;;;5030755;28;20051;-46
2022/09/30 06:03:12;;;;;;;25.13;10.25;;;5.80;99.90;;;;;;5063307;28;20056;-44
2022/09/30 06:05:39;;;;;;;32.13;13.13;;;5.80;99.90;;;;;;5047694;28;20134;-45
2022/09/30 06:08:08;;;;;;;15.55;11.05;;;5.80;99.90;;;;;;5075176;28;20135;-45
2022/09/30 06:10:36;;;;;;;12.85;10.68;;;5.90;99.90;;;;;;5060274;28;20221;-44
2022/09/30 06:13:03;;;;;;;15.30;10.60;;;5.90;99.90;;;;;;5057898;28;20056;-46
2022/09/30 06:15:30;;;;;;;11.05;10.05;;;5.90;99.90;;;;;;5058854;28;20039;-49
2022/09/30 06:17:57;;;;;;;11.40;10.40;;;6.00;99.90;;;;;;5042719;28;20449;-44
2022/09/30 06:20:23;;;;;;;10.90;10.00;;;6.00;99.90;;;;;;5077077;28;20071;-45
2022/09/30 06:22:49;;;;;;;10.70;9.70;;;6.10;99.90;;;;;;5061704;28;20140;-48
2022/09/30 06:25:16;;;;;;;10.32;9.43;;;6.10;99.90;;;;;;5041556;28;20040;-53
2022/09/30 06:27:46;;;;;;;10.70;9.70;;;6.10;99.90;;;;;;5058825;28;20051;-50
2022/09/30 06:30:13;;;;;;;10.45;9.40;;;6.10;99.90;;;;;;5043431;28;20044;-53
2022/09/30 06:32:39;;;;;;;11.00;10.00;;;6.20;99.90;;;;;;5072885;28;20056;-51
2022/09/30 06:35:05;;;;;;;10.82;9.77;;;6.30;99.90;;;;;;5057758;28;20085;-53
2022/09/30 06:37:32;;;;;;;11.60;10.48;;;6.30;99.90;;;;;;5044161;28;20643;-49
2022/09/30 06:39:58;;;;;;;10.05;9.15;;;6.30;99.90;;;;;;5056671;28;20067;-52
2022/09/30 06:42:24;;;;;;;10.60;9.60;;;6.40;99.90;;;;;;5070020;28;20043;-46
2022/09/30 06:44:50;;;;;;;11.02;10.13;;;6.50;99.90;;;;;;5076703;28;20052;-50
2022/09/30 06:47:17;;;;;;;12.45;11.20;;;6.60;99.90;;;;;;5058153;28;20036;-50
2022/09/30 06:49:43;;;;;;;11.18;10.18;;;6.70;99.90;;;;;;5058955;28;20048;-49
2022/09/30 06:52:13;;;;;;;11.43;10.32;;;6.90;99.90;;;;;;5063449;28;20043;-45
2022/09/30 06:54:41;;;;;;;11.77;10.68;;;7.10;99.90;;;;;;5059649;28;20047;-44
2022/09/30 06:57:08;;;;;;;10.77;9.88;;;7.30;99.90;;;;;;5041577;28;20075;-48
2022/09/30 06:59:34;;;;;;;10.70;9.70;;;7.50;99.90;;;;;;5056812;28;20368;-49
2022/09/30 07:02:00;;;;;;;10.55;9.55;;;7.80;99.90;;;;;;5062395;28;20051;-47
2022/09/30 07:04:26;;;;;;;9.98;9.00;;;8.10;99.90;;;;;;5025781;28;20052;-43
2022/09/30 07:06:53;;;;;;;10.98;9.88;;;8.30;99.90;;;;;;5061858;28;20072;-45
2022/09/30 07:09:21;;;;;;;10.10;9.18;;;8.40;99.90;;;;;;5072900;28;20044;-47
2022/09/30 07:11:47;;;;;;;11.23;9.90;;;8.60;99.90;;;;;;5078350;28;20048;-52
2022/09/30 07:14:13;;;;;;;11.90;10.80;;;8.80;99.90;;;;;;5079063;28;20043;-50
2022/09/30 07:16:40;;;;;;;11.57;9.98;;;8.90;99.90;;;;;;5025382;28;20502;-50
2022/09/30 07:19:07;;;;;;;11.45;10.35;;;9.00;99.90;;;;;;5042900;28;20792;-47
2022/09/30 07:21:33;;;;;;;11.88;10.73;;;9.10;99.90;;;;;;5076173;28;20094;-46
2022/09/30 07:24:00;;;;;;;11.13;9.95;;;9.20;99.90;;;;;;5059290;28;20140;-44
2022/09/30 07:26:26;;;;;;;12.38;10.70;;;9.30;99.90;;;;;;5028714;28;20063;-44
2022/09/30 07:28:53;;;;;;;14.18;11.82;;;9.40;99.90;;;;;;5074348;28;20040;-47
2022/09/30 07:31:22;;;;;;;16.35;13.15;;;9.40;99.90;;;;;;5075972;28;20072;-48
2022/09/30 07:33:52;;;;;;;21.83;16.10;;;9.50;99.90;;;;;;5054136;28;20166;-46
2022/09/30 07:36:25;;;;;;;19.30;15.82;;;9.60;99.90;;;;;;5059715;28;20047;-47
2022/09/30 07:38:52;;;;;;;24.25;15.85;;;9.80;99.90;;;;;;5057592;28;20056;-46
2022/09/30 07:41:26;;;;;;;26.63;17.42;;;10.00;99.90;;;;;;5056685;28;20056;-47
2022/09/30 07:43:55;;;;;;;53.28;20.05;;;10.00;99.90;;;;;;5056526;28;20851;-48
2022/09/30 07:46:24;;;;;;;45.88;20.95;;;9.90;99.90;;;;;;5026355;28;20070;-44
2022/09/30 07:48:56;;;;;;;55.63;22.38;;;9.90;99.90;;;;;;5075963;28;20849;-46
2022/09/30 07:51:37;;;;;;;40.97;21.52;;;9.90;99.90;;;;;;5075240;28;20122;-53
2022/09/30 07:54:10;;;;;;;37.70;20.93;;;10.00;99.90;;;;;;5043338;28;20587;-53
2022/09/30 07:56:37;;;;;;;28.08;18.67;;;10.20;99.90;;;;;;5056402;28;20142;-51
2022/09/30 07:59:04;;;;;;;27.15;18.85;;;10.30;99.90;;;;;;5058821;28;20047;-46
2022/09/30 08:01:31;;;;;;;23.40;17.20;;;10.70;99.90;;;;;;5073413;28;20058;-51
2022/09/30 08:04:03;;;;;;;17.50;14.60;;;11.20;99.90;;;;;;5056327;28;20048;-43
2022/09/30 08:06:30;;;;;;;;;;;12.00;99.90;;;;;;5040904;28;20049;-54
2022/09/30 08:08:57;;;;;;;17.63;13.52;;;12.60;99.90;;;;;;5076434;28;20416;-46
2022/09/30 08:11:24;;;;;;;17.35;13.23;;;13.40;99.90;;;;;;5054799;28;20412;-43
2022/09/30 08:13:55;;;;;;;15.20;12.93;;;14.00;99.90;;;;;;5040634;28;21180;-56
2022/09/30 08:16:23;;;;;;;13.57;11.30;;;14.50;99.90;;;;;;5058228;28;20182;-56
2022/09/30 08:18:59;;;;;;;12.13;10.82;;;14.90;99.90;;;;;;5069651;28;20070;-44
2022/09/30 08:21:27;;;;;;;11.98;9.90;;;15.60;99.90;;;;;;5045907;28;20094;-45
2022/09/30 08:23:54;;;;;;;12.48;9.48;;;15.90;99.90;;;;;;5042304;28;20075;-43
2022/09/30 08:26:20;;;;;;;11.98;9.25;;;16.30;99.90;;;;;;5041961;28;20162;-45
2022/09/30 08:28:47;;;;;;;11.80;9.23;;;16.70;99.90;;;;;;5061323;28;20101;-56
2022/09/30 08:31:23;;;;;;;11.15;8.82;;;16.90;99.90;;;;;;5059261;28;20051;-45
2022/09/30 08:33:49;;;;;;;10.35;8.40;;;17.00;99.90;;;;;;5078011;28;20117;-56
2022/09/30 08:36:19;;;;;;;8.63;7.68;;;17.30;99.90;;;;;;5064562;28;20043;-56
2022/09/30 08:38:46;;;;;;;11.43;8.10;;;17.90;99.90;;;;;;5061578;28;20047;-60
2022/09/30 08:41:15;;;;;;;9.32;8.13;;;18.10;99.90;;;;;;5045554;28;20150;-46
2022/09/30 08:43:56;;;;;;;8.73;7.78;;;18.00;99.90;;;;;;5063792;28;20513;-55
2022/09/30 08:46:51;;;;;;;10.15;7.07;;;18.20;99.90;;;;;;5061474;28;20410;-56
2022/09/30 08:49:38;;;;;;;8.95;7.32;;;18.60;99.90;;;;;;5077066;28;20056;-56
2022/09/30 08:52:13;;;;;;;9.20;7.03;;;18.90;99.90;;;;;;5078806;28;20040;-56
2022/09/30 08:54:45;;;;;;;7.07;5.95;;;19.30;99.90;;;;;;5060930;28;20677;-56
2022/09/30 08:57:12;;;;;;;8.07;5.93;;;19.70;99.90;;;;;;5075553;28;20048;-56
2022/09/30 08:59:44;;;;;;;6.85;5.25;;;20.00;99.90;;;;;;5078916;28;20051;-55
2022/09/30 09:02:29;;;;;;;8.55;5.15;;;20.20;99.90;;;;;;5078139;28;20131;-56
2022/09/30 09:05:03;;;;;;;7.72;5.60;;;20.30;99.90;;;;;;5079561;28;20056;-42
2022/09/30 09:07:44;;;;;;;5.10;4.13;;;20.30;99.90;;;;;;5058243;28;20091;-56
2022/09/30 09:10:37;;;;;;;7.03;4.70;;;20.40;99.90;;;;;;5030608;28;20432;-56
2022/09/30 09:13:42;;;;;;;8.57;4.75;;;20.40;99.90;;;;;;5079280;28;20040;-55
2022/09/30 09:16:21;;;;;;;7.45;4.35;;;20.60;99.90;;;;;;5033599;28;20110;-56
2022/09/30 09:19:09;;;;;;;7.53;4.97;;;20.90;99.90;;;;;;5072740;28;20048;-56
2022/09/30 09:21:49;;;;;;;6.53;5.13;;;21.40;99.90;;;;;;5061762;28;20044;-51
2022/09/30 09:24:25;;;;;;;15.35;13.45;;;21.70;99.90;;;;;;5076880;28;20070;-52
2022/09/30 09:26:57;;;;;;;4.95;3.72;;;21.60;99.90;;;;;;5060104;28;20052;-51
2022/09/30 09:29:56;;;;;;;6.55;5.53;;;22.10;99.90;;;;;;5060725;28;20048;-52
2022/09/30 09:32:26;;;;;;;12.50;11.23;;;22.10;98.70;;;;;;5045104;28;20548;-52
2022/09/30 09:34:59;;;;;;;4.65;3.58;;;22.40;99.80;;;;;;5080550;28;20044;-52
2022/09/30 09:40:31;;;;;;;5.97;3.80;;;22.70;95.80;;;;;;5074254;28;20051;-53
2022/09/30 09:43:11;;;;;;;7.28;6.55;;;23.10;94.60;;;;;;5060571;28;20902;-54
2022/09/30 09:46:02;;;;;;;7.43;6.72;;;23.10;90.30;;;;;;5075278;28;20821;-55
2022/09/30 09:48:34;;;;;;;;;;;23.00;90.20;;;;;;5009305;28;20062;-51
2022/09/30 09:51:12;;;;;;;5.93;3.70;;;22.70;91.10;;;;;;5072278;28;19956;-44
2022/09/30 09:53:42;;;;;;;5.15;3.55;;;23.10;90.50;;;;;;5076933;28;20175;-53
2022/09/30 09:56:19;;;;;;;5.90;4.60;;;23.10;89.40;;;;;;5058149;28;20044;-50
2022/09/30 09:59:12;;;;;;;6.18;3.80;;;23.10;82.40;;;;;;5076528;28;20742;-48
2022/09/30 10:01:45;;;;;;;5.85;4.75;;;23.40;87.80;;;;;;5071889;28;20125;-45
2022/09/30 10:04:12;;;;;;;10.82;9.70;;;23.50;90.40;;;;;;5044172;28;20052;-46
2022/09/30 10:06:51;;;;;;;5.57;4.05;;;23.90;86.80;;;;;;5057760;28;20495;-48
2022/09/30 10:09:28;;;;;;;10.27;9.20;;;23.80;82.70;;;;;;5078298;28;20052;-53
2022/09/30 10:12:17;;;;;;;7.80;7.00;;;23.30;77.00;;;;;;5092169;28;20119;-56
2022/09/30 10:14:55;;;;;;;7.63;6.22;;;23.30;77.40;;;;;;5077595;28;20056;-56
2022/09/30 10:17:33;;;;;;;5.03;4.18;;;22.80;81.20;;;;;;5079140;28;20783;-50
2022/09/30 10:20:17;;;;;;;5.82;5.05;;;23.00;84.00;;;;;;5060151;28;20055;-52
2022/09/30 10:22:43;;;;;;;8.05;6.10;;;23.30;79.50;;;;;;5043302;28;20054;-46
2022/09/30 10:25:24;;;;;;;7.20;5.50;;;23.00;85.20;;;;;;5054222;28;20051;-45
2022/09/30 10:28:03;;;;;;;10.48;9.45;;;23.10;78.30;;;;;;5057341;28;20051;-43
2022/09/30 10:30:33;;;;;;;8.30;6.00;;;23.70;77.40;;;;;;5058218;28;20075;-55
2022/09/30 10:33:03;;;;;;;6.38;5.78;;;23.70;78.90;;;;;;5059679;28;20047;-47
2022/09/30 10:35:30;;;;;;;6.80;5.90;;;24.20;83.20;;;;;;5060753;28;20165;-51
2022/09/30 10:37:59;;;;;;;6.68;6.03;;;24.50;77.70;;;;;;5056312;28;20126;-44
2022/09/30 10:40:29;;;;;;;9.25;7.38;;;25.00;75.00;;;;;;5076812;28;20047;-50
2022/09/30 10:42:56;;;;;;;12.57;11.30;;;24.70;70.90;;;;;;5075587;28;20063;-54
2022/09/30 10:45:28;;;;;;;19.60;17.58;;;25.20;70.50;;;;;;5053422;28;21013;-46
2022/09/30 10:47:55;;;;;;;6.53;5.85;;;24.60;70.60;;;;;;5074698;28;20044;-52
2022/09/30 10:50:25;;;;;;;3.75;3.25;;;24.70;67.70;;;;;;5085550;28;20049;-56
2022/09/30 10:53:14;;;;;;;4.25;3.55;;;23.80;68.00;;;;;;5075923;28;20040;-54
2022/09/30 10:55:42;;;;;;;5.97;3.35;;;23.60;70.50;;;;;;5057732;28;20063;-49
2022/09/30 10:58:24;;;;;;;5.63;3.10;;;22.40;70.50;;;;;;5042101;28;20047;-53
2022/09/30 11:01:17;;;;;;;4.03;3.45;;;21.70;75.30;;;;;;5073057;28;20088;-53
2022/09/30 11:04:00;;;;;;;3.97;3.50;;;21.80;83.50;;;;;;5018961;28;20075;-48
2022/09/30 11:06:30;;;;;;;5.00;4.22;;;20.90;86.30;;;;;;5057738;28;20046;-46
2022/09/30 11:09:13;;;;;;;5.03;3.78;;;20.80;90.40;;;;;;5076474;28;20056;-52
2022/09/30 11:11:49;;;;;;;5.10;3.45;;;21.00;89.90;;;;;;5059675;28;20052;-48
2022/09/30 11:14:27;;;;;;;4.03;2.95;;;20.90;91.40;;;;;;5075308;28;20055;-44
2022/09/30 11:17:14;;;;;;;5.75;3.70;;;20.90;90.20;;;;;;5055591;28;20044;-50
2022/09/30 11:20:18;;;;;;;4.70;3.13;;;20.50;91.10;;;;;;5028220;28;20048;-48
2022/09/30 11:23:13;;;;;;;4.28;3.30;;;21.20;86.80;;;;;;5042315;28;20044;-45
2022/09/30 11:25:55;;;;;;;4.88;3.28;;;21.90;88.70;;;;;;5077868;28;20051;-48
2022/09/30 11:28:36;;;;;;;3.88;2.88;;;22.80;82.70;;;;;;5073376;28;20056;-44
2022/09/30 11:31:34;;;;;;;4.88;3.45;;;22.30;77.90;;;;;;5043342;28;20789;-45
2022/09/30 11:34:03;;;;;;;4.82;3.88;;;22.00;79.70;;;;;;5058606;28;20036;-47
2022/09/30 11:36:48;;;;;;;6.00;3.28;;;22.80;80.50;;;;;;5074310;28;20155;-45
2022/09/30 11:39:28;;;;;;;4.40;3.38;;;23.80;78.80;;;;;;5041128;28;20040;-49
2022/09/30 11:42:11;;;;;;;5.00;3.33;;;25.00;72.60;;;;;;5060075;28;20147;-49
2022/09/30 11:44:40;;;;;;;4.88;3.33;;;25.20;65.00;;;;;;5078249;28;20129;-47
2022/09/30 11:47:19;;;;;;;4.78;3.45;;;24.70;64.40;;;;;;5075121;28;20160;-47
2022/09/30 11:49:45;;;;;;;4.68;4.00;;;24.30;65.30;;;;;;5055270;28;20644;-48
2022/09/30 11:52:49;;;;;;;6.88;6.05;;;23.70;64.70;;;;;;5074480;28;20040;-44
2022/09/30 11:55:34;;;;;;;22.70;20.38;;;23.40;68.00;;;;;;4997819;28;20090;-44
2022/09/30 11:58:18;;;;;;;5.25;4.70;;;23.80;70.50;;;;;;5071131;28;20043;-45
2022/09/30 12:00:51;;;;;;;6.07;4.90;;;23.70;66.50;;;;;;5073571;28;20656;-49
2022/09/30 12:03:37;;;;;;;6.20;5.55;;;23.30;69.60;;;;;;5077149;28;20836;-46
2022/09/30 12:06:23;;;;;;;8.50;6.53;;;22.90;73.10;;;;;;5053485;28;20051;-47
2022/09/30 12:08:58;;;;;;;8.05;5.28;;;23.10;69.70;;;;;;5074725;28;20044;-54
2022/09/30 12:11:32;;;;;;;6.00;4.65;;;23.30;67.40;;;;;;5074180;28;20159;-51
2022/09/30 12:14:04;;;;;;;7.03;6.18;;;22.20;72.10;;;;;;5070411;28;20546;-49
2022/09/30 12:16:33;;;;;;;7.70;6.50;;;22.00;77.60;;;;;;5055855;28;20047;-47
2022/09/30 12:19:10;;;;;;;6.93;5.68;;;22.90;75.80;;;;;;5059250;28;20162;-53
2022/09/30 12:21:49;;;;;;;7.43;6.28;;;23.70;70.40;;;;;;5075595;28;20044;-47
2022/09/30 12:24:24;;;;;;;6.70;6.00;;;24.30;65.60;;;;;;5059554;28;20039;-52
2022/09/30 12:26:51;;;;;;;7.55;6.75;;;24.20;66.00;;;;;;5077051;28;20051;-52
2022/09/30 12:32:40;;;;;;;7.35;6.65;;;23.10;68.00;;;;;;5057685;28;20048;-49
2022/09/30 12:35:29;;;;;;;8.43;7.28;;;22.80;68.10;;;;;;5075187;28;20044;-49
2022/09/30 12:38:34;;;;;;;7.97;7.07;;;23.30;68.50;;;;;;5058327;28;20048;-50
2022/09/30 12:41:25;;;;;;;8.10;6.55;;;24.00;66.10;;;;;;5041128;28;20054;-50
2022/09/30 12:43:54;;;;;;;7.38;6.00;;;23.60;66.50;;;;;;5037985;28;20055;-50
2022/09/30 12:46:25;;;;;;;9.05;6.53;;;23.30;66.90;;;;;;5040501;28;20098;-45
2022/09/30 12:49:02;;;;;;;8.07;7.28;;;22.70;68.20;;;;;;5027221;28;20067;-51
2022/09/30 12:51:33;;;;;;;8.63;7.72;;;22.40;69.50;;;;;;5053307;28;20036;-50
2022/09/30 12:54:09;;;;;;;;;;;21.40;72.30;;;;;;5040615;28;20036;-53
2022/09/30 12:56:39;;;;;;;13.23;12.02;;;20.90;80.20;;;;;;5071529;28;19959;-53
2022/09/30 12:59:08;;;;;;;15.55;14.02;;;21.10;81.60;;;;;;5065330;28;20105;-54
2022/09/30 13:01:37;;;;;;;10.30;9.20;;;21.20;82.00;;;;;;5056341;28;20465;-52
2022/09/30 13:04:03;;;;;;;10.40;9.25;;;21.40;83.90;;;;;;5056218;28;20051;-53
2022/09/30 13:06:45;;;;;;;12.95;11.70;;;22.00;84.20;;;;;;5039484;28;20818;-54
2022/09/30 13:09:21;;;;;;;10.48;8.98;;;22.60;76.40;;;;;;5073465;28;20504;-53
2022/09/30 13:12:14;;;;;;;11.60;10.40;;;23.10;74.20;;;;;;5056535;28;20083;-53
2022/09/30 13:14:44;;;;;;;12.25;10.98;;;23.40;71.00;;;;;;5078620;28;20406;-53
2022/09/30 13:17:11;;;;;;;11.93;10.82;;;22.30;71.80;;;;;;5063376;28;20083;-51
2022/09/30 13:19:41;;;;;;;12.43;11.32;;;21.80;75.70;;;;;;5059334;28;20070;-52
2022/09/30 13:22:20;;;;;;;10.87;9.90;;;21.50;77.90;;;;;;5056673;28;20048;-53
2022/09/30 13:25:04;;;;;;;11.60;10.40;;;21.70;80.60;;;;;;5079727;28;20056;-50
2022/09/30 13:27:42;;;;;;;11.77;10.50;;;22.20;78.10;;;;;;5061719;28;20048;-51